sensor_id;sensor_type;location;lat;lon;timestamp;temperature;humidity
1011;DHT22;494;48.744;10.106;2023-02-21T00:02:16;5.60;37.60
1011;DHT22;494;48.744;10.106;2023-02-21T00:05:02;5.50;38.00
1011;DHT22;494;48.744;10.106;2023-02-21T00:07:48;5.60;38.30
1011;DHT22;494;48.744;10.106;2023-02-21T00:10:34;5.40;38.50
1011;DHT22;494;48.744;10.106;2023-02-21T00:13:22;5.40;38.50
1011;DHT22;494;48.744;10.106;2023-02-21T00:16:07;5.60;38.60
1011;DHT22;494;48.744;10.106;2023-02-21T00:18:54;5.50;38.50
1011;DHT22;494;48.744;10.106;2023-02-21T00:21:40;5.60;38.30
1011;DHT22;494;48.744;10.106;2023-02-21T00:24:26;5.50;38.30
1011;DHT22;494;48.744;10.106;2023-02-21T00:27:12;5.50;38.30
1011;DHT22;494;48.744;10.106;2023-02-21T00:29:59;5.60;38.50
1011;DHT22;494;48.744;10.106;2023-02-21T00:32:45;5.40;38.40
1011;DHT22;494;48.744;10.106;2023-02-21T00:35:33;5.40;38.60
1011;DHT22;494;48.744;10.106;2023-02-21T00:38:19;5.40;38.70
1011;DHT22;494;48.744;10.106;2023-02-21T00:41:05;5.40;38.60
1011;DHT22;494;48.744;10.106;2023-02-21T00:43:51;5.40;38.70
1011;DHT22;494;48.744;10.106;2023-02-21T00:46:38;5.40;38.80
1011;DHT22;494;48.744;10.106;2023-02-21T00:49:25;5.50;38.80
1011;DHT22;494;48.744;10.106;2023-02-21T00:52:10;5.50;38.90
1011;DHT22;494;48.744;10.106;2023-02-21T00:54:56;5.40;38.80
1011;DHT22;494;48.744;10.106;2023-02-21T00:57:43;5.40;38.60
1011;DHT22;494;48.744;10.106;2023-02-21T01:00:29;5.40;38.80
1011;DHT22;494;48.744;10.106;2023-02-21T01:03:16;5.50;38.90
1011;DHT22;494;48.744;10.106;2023-02-21T01:06:02;5.60;39.10
1011;DHT22;494;48.744;10.106;2023-02-21T01:08:52;5.40;39.20
1011;DHT22;494;48.744;10.106;2023-02-21T01:11:38;5.40;39.30
1011;DHT22;494;48.744;10.106;2023-02-21T01:14:32;5.40;39.20
1011;DHT22;494;48.744;10.106;2023-02-21T01:17:18;5.60;39.30
1011;DHT22;494;48.744;10.106;2023-02-21T01:20:06;5.50;39.20
1011;DHT22;494;48.744;10.106;2023-02-21T01:22:52;5.50;39.00
1011;DHT22;494;48.744;10.106;2023-02-21T01:25:38;5.50;39.00
1011;DHT22;494;48.744;10.106;2023-02-21T01:28:24;5.50;39.00
1011;DHT22;494;48.744;10.106;2023-02-21T01:31:10;5.60;38.90
1011;DHT22;494;48.744;10.106;2023-02-21T01:34:01;5.60;38.90
1011;DHT22;494;48.744;10.106;2023-02-21T01:36:48;5.60;38.70
1011;DHT22;494;48.744;10.106;2023-02-21T01:39:34;5.60;39.00
1011;DHT22;494;48.744;10.106;2023-02-21T01:42:20;5.70;39.30
1011;DHT22;494;48.744;10.106;2023-02-21T01:45:37;5.50;39.50
1011;DHT22;494;48.744;10.106;2023-02-21T01:48:28;5.50;39.60
1011;DHT22;494;48.744;10.106;2023-02-21T01:51:18;5.50;39.50
1011;DHT22;494;48.744;10.106;2023-02-21T01:54:09;5.60;39.10
1011;DHT22;494;48.744;10.106;2023-02-21T01:56:58;5.50;39.20
1011;DHT22;494;48.744;10.106;2023-02-21T01:59:47;5.40;39.30
1011;DHT22;494;48.744;10.106;2023-02-21T02:02:38;5.20;39.90
1011;DHT22;494;48.744;10.106;2023-02-21T02:05:33;5.40;40.00
1011;DHT22;494;48.744;10.106;2023-02-21T02:08:28;5.40;39.80
1011;DHT22;494;48.744;10.106;2023-02-21T02:11:36;5.40;39.70
1011;DHT22;494;48.744;10.106;2023-02-21T02:15:15;5.40;39.70
1011;DHT22;494;48.744;10.106;2023-02-21T02:18:07;5.30;39.70
1011;DHT22;494;48.744;10.106;2023-02-21T02:21:04;5.40;39.80
1011;DHT22;494;48.744;10.106;2023-02-21T02:24:35;5.30;39.90
1011;DHT22;494;48.744;10.106;2023-02-21T02:27:46;5.30;39.90
1011;DHT22;494;48.744;10.106;2023-02-21T02:31:16;5.20;39.90
1011;DHT22;494;48.744;10.106;2023-02-21T02:34:30;5.30;40.70
1011;DHT22;494;48.744;10.106;2023-02-21T02:37:16;5.30;39.90
1011;DHT22;494;48.744;10.106;2023-02-21T02:39:55;5.30;40.00
1011;DHT22;494;48.744;10.106;2023-02-21T02:42:39;5.40;40.00
1011;DHT22;494;48.744;10.106;2023-02-21T02:45:20;5.30;40.00
1011;DHT22;494;48.744;10.106;2023-02-21T02:47:57;5.30;40.00
1011;DHT22;494;48.744;10.106;2023-02-21T02:50:32;5.40;40.10
1011;DHT22;494;48.744;10.106;2023-02-21T02:53:02;5.20;40.20
1011;DHT22;494;48.744;10.106;2023-02-21T02:55:36;5.40;40.20
1011;DHT22;494;48.744;10.106;2023-02-21T02:58:10;5.30;40.00
1011;DHT22;494;48.744;10.106;2023-02-21T03:00:42;5.40;39.80
1011;DHT22;494;48.744;10.106;2023-02-21T03:03:30;5.40;39.70
1011;DHT22;494;48.744;10.106;2023-02-21T03:06:24;5.40;39.70
1011;DHT22;494;48.744;10.106;2023-02-21T03:09:08;5.20;39.70
1011;DHT22;494;48.744;10.106;2023-02-21T03:11:53;5.10;40.00
1011;DHT22;494;48.744;10.106;2023-02-21T03:14:32;5.20;40.20
1011;DHT22;494;48.744;10.106;2023-02-21T03:17:08;5.10;40.10
1011;DHT22;494;48.744;10.106;2023-02-21T03:19:42;5.10;40.10
1011;DHT22;494;48.744;10.106;2023-02-21T03:22:17;5.00;40.00
1011;DHT22;494;48.744;10.106;2023-02-21T03:24:49;4.90;40.30
1011;DHT22;494;48.744;10.106;2023-02-21T03:27:20;5.00;40.40
1011;DHT22;494;48.744;10.106;2023-02-21T03:29:50;5.00;40.40
1011;DHT22;494;48.744;10.106;2023-02-21T03:32:26;5.20;40.60
1011;DHT22;494;48.744;10.106;2023-02-21T03:34:56;4.90;40.60
1011;DHT22;494;48.744;10.106;2023-02-21T03:37:31;4.90;40.80
1011;DHT22;494;48.744;10.106;2023-02-21T03:40:04;4.90;40.80
1011;DHT22;494;48.744;10.106;2023-02-21T03:42:34;4.90;40.80
1011;DHT22;494;48.744;10.106;2023-02-21T03:45:03;5.00;41.00
1011;DHT22;494;48.744;10.106;2023-02-21T03:47:32;4.90;40.80
1011;DHT22;494;48.744;10.106;2023-02-21T03:50:00;4.90;40.50
1011;DHT22;494;48.744;10.106;2023-02-21T03:52:32;4.90;40.80
1011;DHT22;494;48.744;10.106;2023-02-21T03:55:01;4.90;40.60
1011;DHT22;494;48.744;10.106;2023-02-21T03:57:29;4.90;40.80
1011;DHT22;494;48.744;10.106;2023-02-21T03:59:58;4.90;40.70
1011;DHT22;494;48.744;10.106;2023-02-21T04:02:27;4.90;40.40
1011;DHT22;494;48.744;10.106;2023-02-21T04:04:56;4.90;40.20
1011;DHT22;494;48.744;10.106;2023-02-21T04:07:24;4.90;40.20
1011;DHT22;494;48.744;10.106;2023-02-21T04:09:54;5.00;40.20
1011;DHT22;494;48.744;10.106;2023-02-21T04:12:25;5.00;40.00
1011;DHT22;494;48.744;10.106;2023-02-21T04:14:53;4.90;40.00
1011;DHT22;494;48.744;10.106;2023-02-21T04:17:24;4.80;39.90
1011;DHT22;494;48.744;10.106;2023-02-21T04:19:53;4.80;39.80
1011;DHT22;494;48.744;10.106;2023-02-21T04:22:21;4.80;39.90
1011;DHT22;494;48.744;10.106;2023-02-21T04:24:50;4.80;39.80
1011;DHT22;494;48.744;10.106;2023-02-21T04:27:20;4.80;39.90
1011;DHT22;494;48.744;10.106;2023-02-21T04:29:49;4.80;40.00
1011;DHT22;494;48.744;10.106;2023-02-21T04:32:18;4.80;39.90
1011;DHT22;494;48.744;10.106;2023-02-21T04:34:46;4.80;40.00
1011;DHT22;494;48.744;10.106;2023-02-21T04:37:15;5.00;39.80
1011;DHT22;494;48.744;10.106;2023-02-21T04:39:44;4.80;39.80
1011;DHT22;494;48.744;10.106;2023-02-21T04:42:12;4.90;40.00
1011;DHT22;494;48.744;10.106;2023-02-21T04:44:42;4.60;39.80
1011;DHT22;494;48.744;10.106;2023-02-21T04:47:25;4.80;39.80
1011;DHT22;494;48.744;10.106;2023-02-21T04:49:53;4.80;39.90
1011;DHT22;494;48.744;10.106;2023-02-21T04:52:23;4.70;39.70
1011;DHT22;494;48.744;10.106;2023-02-21T04:54:52;4.70;39.70
1011;DHT22;494;48.744;10.106;2023-02-21T04:57:21;4.80;39.60
1011;DHT22;494;48.744;10.106;2023-02-21T04:59:56;4.60;39.50
1011;DHT22;494;48.744;10.106;2023-02-21T05:02:26;4.70;39.50
1011;DHT22;494;48.744;10.106;2023-02-21T05:04:55;4.80;39.40
1011;DHT22;494;48.744;10.106;2023-02-21T05:07:23;4.70;39.30
1011;DHT22;494;48.744;10.106;2023-02-21T05:09:52;4.70;39.90
1011;DHT22;494;48.744;10.106;2023-02-21T05:12:21;4.70;39.30
1011;DHT22;494;48.744;10.106;2023-02-21T05:14:50;4.60;39.30
1011;DHT22;494;48.744;10.106;2023-02-21T05:17:19;4.70;39.60
1011;DHT22;494;48.744;10.106;2023-02-21T05:19:48;4.40;39.90
1011;DHT22;494;48.744;10.106;2023-02-21T05:22:17;4.50;40.00
1011;DHT22;494;48.744;10.106;2023-02-21T05:24:47;4.50;40.10
1011;DHT22;494;48.744;10.106;2023-02-21T05:27:20;4.50;40.10
1011;DHT22;494;48.744;10.106;2023-02-21T05:29:51;4.50;40.00
1011;DHT22;494;48.744;10.106;2023-02-21T05:32:21;4.50;40.00
1011;DHT22;494;48.744;10.106;2023-02-21T05:34:50;4.70;40.20
1011;DHT22;494;48.744;10.106;2023-02-21T05:37:19;4.50;39.90
1011;DHT22;494;48.744;10.106;2023-02-21T05:39:48;4.50;39.70
1011;DHT22;494;48.744;10.106;2023-02-21T05:42:16;4.50;40.10
1011;DHT22;494;48.744;10.106;2023-02-21T05:44:46;4.50;40.00
1011;DHT22;494;48.744;10.106;2023-02-21T05:47:15;4.50;39.90
1011;DHT22;494;48.744;10.106;2023-02-21T05:49:45;4.60;39.80
1011;DHT22;494;48.744;10.106;2023-02-21T05:52:16;4.70;39.80
1011;DHT22;494;48.744;10.106;2023-02-21T05:54:45;4.50;39.30
1011;DHT22;494;48.744;10.106;2023-02-21T05:57:13;4.50;39.50
1011;DHT22;494;48.744;10.106;2023-02-21T05:59:42;4.50;39.50
1011;DHT22;494;48.744;10.106;2023-02-21T06:02:11;4.50;39.50
1011;DHT22;494;48.744;10.106;2023-02-21T06:04:39;4.50;39.40
1011;DHT22;494;48.744;10.106;2023-02-21T06:07:09;4.50;39.50
1011;DHT22;494;48.744;10.106;2023-02-21T06:09:38;4.60;39.40
1011;DHT22;494;48.744;10.106;2023-02-21T06:12:07;4.60;39.30
1011;DHT22;494;48.744;10.106;2023-02-21T06:14:36;4.60;39.30
1011;DHT22;494;48.744;10.106;2023-02-21T06:17:04;4.60;39.30
1011;DHT22;494;48.744;10.106;2023-02-21T06:19:33;4.60;39.30
1011;DHT22;494;48.744;10.106;2023-02-21T06:22:01;4.70;39.50
1011;DHT22;494;48.744;10.106;2023-02-21T06:24:31;4.60;39.50
1011;DHT22;494;48.744;10.106;2023-02-21T06:27:00;4.60;39.40
1011;DHT22;494;48.744;10.106;2023-02-21T06:29:29;4.60;39.40
1011;DHT22;494;48.744;10.106;2023-02-21T06:31:59;4.60;39.60
1011;DHT22;494;48.744;10.106;2023-02-21T06:34:28;4.80;39.60
1011;DHT22;494;48.744;10.106;2023-02-21T06:36:56;4.70;39.50
1011;DHT22;494;48.744;10.106;2023-02-21T06:39:25;4.60;39.50
1011;DHT22;494;48.744;10.106;2023-02-21T06:41:55;4.60;39.60
1011;DHT22;494;48.744;10.106;2023-02-21T06:44:24;4.80;39.80
1011;DHT22;494;48.744;10.106;2023-02-21T06:46:52;4.80;39.80
1011;DHT22;494;48.744;10.106;2023-02-21T06:49:21;4.70;39.90
1011;DHT22;494;48.744;10.106;2023-02-21T06:51:50;5.00;40.60
1011;DHT22;494;48.744;10.106;2023-02-21T06:54:19;4.90;41.20
1011;DHT22;494;48.744;10.106;2023-02-21T06:56:47;5.20;41.20
1011;DHT22;494;48.744;10.106;2023-02-21T06:59:18;5.40;40.70
1011;DHT22;494;48.744;10.106;2023-02-21T07:01:47;5.50;39.70
1011;DHT22;494;48.744;10.106;2023-02-21T07:04:16;5.60;39.20
1011;DHT22;494;48.744;10.106;2023-02-21T07:06:44;6.00;39.40
1011;DHT22;494;48.744;10.106;2023-02-21T07:09:14;6.10;39.30
1011;DHT22;494;48.744;10.106;2023-02-21T07:11:43;6.50;38.10
1011;DHT22;494;48.744;10.106;2023-02-21T07:14:13;6.80;36.70
1011;DHT22;494;48.744;10.106;2023-02-21T07:16:43;7.00;35.70
1011;DHT22;494;48.744;10.106;2023-02-21T07:19:12;7.20;35.10
1011;DHT22;494;48.744;10.106;2023-02-21T07:21:42;7.40;33.90
1011;DHT22;494;48.744;10.106;2023-02-21T07:24:13;7.60;32.80
1011;DHT22;494;48.744;10.106;2023-02-21T07:26:41;7.80;32.20
1011;DHT22;494;48.744;10.106;2023-02-21T07:29:10;8.00;31.40
1011;DHT22;494;48.744;10.106;2023-02-21T07:31:39;8.20;30.50
1011;DHT22;494;48.744;10.106;2023-02-21T07:34:09;8.30;29.60
1011;DHT22;494;48.744;10.106;2023-02-21T07:36:39;8.50;29.80
1011;DHT22;494;48.744;10.106;2023-02-21T07:39:08;8.90;29.30
1011;DHT22;494;48.744;10.106;2023-02-21T07:41:36;9.10;28.40
1011;DHT22;494;48.744;10.106;2023-02-21T07:44:05;9.50;27.10
1011;DHT22;494;48.744;10.106;2023-02-21T07:46:34;9.80;25.70
1011;DHT22;494;48.744;10.106;2023-02-21T07:49:03;10.10;24.70
1011;DHT22;494;48.744;10.106;2023-02-21T07:51:33;10.30;23.40
1011;DHT22;494;48.744;10.106;2023-02-21T07:54:02;10.90;22.20
1011;DHT22;494;48.744;10.106;2023-02-21T07:56:30;11.30;20.50
1011;DHT22;494;48.744;10.106;2023-02-21T07:58:59;11.60;20.00
1011;DHT22;494;48.744;10.106;2023-02-21T08:01:28;11.80;19.20
1011;DHT22;494;48.744;10.106;2023-02-21T08:03:57;12.10;18.40
1011;DHT22;494;48.744;10.106;2023-02-21T08:06:26;12.10;18.10
1011;DHT22;494;48.744;10.106;2023-02-21T08:08:56;12.30;18.10
1011;DHT22;494;48.744;10.106;2023-02-21T08:11:25;12.40;18.20
1011;DHT22;494;48.744;10.106;2023-02-21T08:13:53;12.60;17.50
1011;DHT22;494;48.744;10.106;2023-02-21T08:16:23;12.70;17.50
1011;DHT22;494;48.744;10.106;2023-02-21T08:18:52;12.80;17.40
1011;DHT22;494;48.744;10.106;2023-02-21T08:21:20;13.00;17.00
1011;DHT22;494;48.744;10.106;2023-02-21T08:23:51;13.30;16.90
1011;DHT22;494;48.744;10.106;2023-02-21T08:26:22;13.50;16.70
1011;DHT22;494;48.744;10.106;2023-02-21T08:28:51;14.00;16.20
1011;DHT22;494;48.744;10.106;2023-02-21T08:31:20;14.50;15.50
1011;DHT22;494;48.744;10.106;2023-02-21T08:33:50;14.90;14.30
1011;DHT22;494;48.744;10.106;2023-02-21T08:36:19;15.40;13.70
1011;DHT22;494;48.744;10.106;2023-02-21T08:38:51;15.80;12.60
1011;DHT22;494;48.744;10.106;2023-02-21T08:41:19;16.20;11.80
1011;DHT22;494;48.744;10.106;2023-02-21T08:43:51;16.80;10.60
1011;DHT22;494;48.744;10.106;2023-02-21T08:46:20;17.20;10.50
1011;DHT22;494;48.744;10.106;2023-02-21T08:48:48;17.60;9.80
1011;DHT22;494;48.744;10.106;2023-02-21T08:51:17;18.00;9.50
1011;DHT22;494;48.744;10.106;2023-02-21T08:53:45;18.50;8.60
1011;DHT22;494;48.744;10.106;2023-02-21T08:56:17;19.00;7.70
1011;DHT22;494;48.744;10.106;2023-02-21T08:58:48;19.40;7.70
1011;DHT22;494;48.744;10.106;2023-02-21T09:01:17;19.80;6.90
1011;DHT22;494;48.744;10.106;2023-02-21T09:03:45;20.20;6.10
1011;DHT22;494;48.744;10.106;2023-02-21T09:06:14;20.50;5.80
1011;DHT22;494;48.744;10.106;2023-02-21T09:08:44;20.80;5.50
1011;DHT22;494;48.744;10.106;2023-02-21T09:11:12;21.10;5.30
1011;DHT22;494;48.744;10.106;2023-02-21T09:13:41;21.40;4.60
1011;DHT22;494;48.744;10.106;2023-02-21T09:16:11;21.50;5.10
1011;DHT22;494;48.744;10.106;2023-02-21T09:18:40;21.80;4.80
1011;DHT22;494;48.744;10.106;2023-02-21T09:21:08;22.30;4.50
1011;DHT22;494;48.744;10.106;2023-02-21T09:23:37;22.70;3.40
1011;DHT22;494;48.744;10.106;2023-02-21T09:26:05;23.20;2.50
1011;DHT22;494;48.744;10.106;2023-02-21T09:28:34;23.20;3.20
1011;DHT22;494;48.744;10.106;2023-02-21T09:31:10;23.70;2.40
1011;DHT22;494;48.744;10.106;2023-02-21T09:33:40;24.10;1.50
1011;DHT22;494;48.744;10.106;2023-02-21T09:36:09;24.20;1.00
1011;DHT22;494;48.744;10.106;2023-02-21T09:38:39;24.50;1.00
1011;DHT22;494;48.744;10.106;2023-02-21T09:41:11;24.50;1.00
1011;DHT22;494;48.744;10.106;2023-02-21T09:43:44;25.00;1.10
1011;DHT22;494;48.744;10.106;2023-02-21T09:46:24;25.60;1.00
1011;DHT22;494;48.744;10.106;2023-02-21T09:49:00;25.80;1.00
1011;DHT22;494;48.744;10.106;2023-02-21T09:51:31;25.90;1.00
1011;DHT22;494;48.744;10.106;2023-02-21T09:54:04;26.30;1.00
1011;DHT22;494;48.744;10.106;2023-02-21T09:56:37;26.80;1.00
1011;DHT22;494;48.744;10.106;2023-02-21T09:59:09;27.50;1.00
1011;DHT22;494;48.744;10.106;2023-02-21T10:01:49;27.90;1.00
1011;DHT22;494;48.744;10.106;2023-02-21T10:04:56;28.40;1.00
1011;DHT22;494;48.744;10.106;2023-02-21T10:07:37;28.90;1.00
1011;DHT22;494;48.744;10.106;2023-02-21T10:10:14;29.00;1.00
1011;DHT22;494;48.744;10.106;2023-02-21T10:12:50;29.20;1.00
1011;DHT22;494;48.744;10.106;2023-02-21T10:15:36;29.60;1.00
1011;DHT22;494;48.744;10.106;2023-02-21T10:18:21;30.30;1.00
1011;DHT22;494;48.744;10.106;2023-02-21T10:21:02;30.60;1.00
1011;DHT22;494;48.744;10.106;2023-02-21T10:23:40;30.60;1.00
1011;DHT22;494;48.744;10.106;2023-02-21T10:26:16;30.80;1.00
1011;DHT22;494;48.744;10.106;2023-02-21T10:28:47;30.80;1.00
1011;DHT22;494;48.744;10.106;2023-02-21T10:31:22;30.60;1.00
1011;DHT22;494;48.744;10.106;2023-02-21T10:33:58;30.30;1.00
1011;DHT22;494;48.744;10.106;2023-02-21T10:36:28;30.40;1.00
1011;DHT22;494;48.744;10.106;2023-02-21T10:38:58;30.40;1.00
1011;DHT22;494;48.744;10.106;2023-02-21T10:41:36;30.60;1.00
1011;DHT22;494;48.744;10.106;2023-02-21T10:44:11;30.80;1.00
1011;DHT22;494;48.744;10.106;2023-02-21T10:46:51;30.70;1.00
1011;DHT22;494;48.744;10.106;2023-02-21T10:49:30;30.60;1.00
1011;DHT22;494;48.744;10.106;2023-02-21T10:52:07;31.30;1.00
1011;DHT22;494;48.744;10.106;2023-02-21T10:54:38;31.50;1.00
1011;DHT22;494;48.744;10.106;2023-02-21T10:57:09;31.50;1.00
1011;DHT22;494;48.744;10.106;2023-02-21T10:59:46;31.60;1.00
1011;DHT22;494;48.744;10.106;2023-02-21T11:02:31;31.80;1.00
1011;DHT22;494;48.744;10.106;2023-02-21T11:05:12;32.10;1.00
1011;DHT22;494;48.744;10.106;2023-02-21T11:07:56;31.90;1.00
1011;DHT22;494;48.744;10.106;2023-02-21T11:10:29;32.00;1.00
1011;DHT22;494;48.744;10.106;2023-02-21T11:13:12;32.50;1.00
1011;DHT22;494;48.744;10.106;2023-02-21T11:15:44;33.10;1.00
1011;DHT22;494;48.744;10.106;2023-02-21T11:18:17;33.30;1.00
1011;DHT22;494;48.744;10.106;2023-02-21T11:21:10;33.30;1.00
1011;DHT22;494;48.744;10.106;2023-02-21T11:23:45;33.70;1.00
1011;DHT22;494;48.744;10.106;2023-02-21T11:26:24;33.70;1.00
1011;DHT22;494;48.744;10.106;2023-02-21T11:29:08;33.70;1.00
1011;DHT22;494;48.744;10.106;2023-02-21T11:31:39;33.70;1.00
1011;DHT22;494;48.744;10.106;2023-02-21T11:34:11;33.70;1.00
1011;DHT22;494;48.744;10.106;2023-02-21T11:36:45;33.90;1.00
1011;DHT22;494;48.744;10.106;2023-02-21T11:39:16;34.10;1.00
1011;DHT22;494;48.744;10.106;2023-02-21T11:41:54;34.10;1.00
1011;DHT22;494;48.744;10.106;2023-02-21T11:44:28;33.90;1.00
1011;DHT22;494;48.744;10.106;2023-02-21T11:47:08;34.30;1.00
1011;DHT22;494;48.744;10.106;2023-02-21T11:49:47;34.60;1.00
1011;DHT22;494;48.744;10.106;2023-02-21T11:52:25;34.90;1.00
1011;DHT22;494;48.744;10.106;2023-02-21T11:55:00;34.60;1.00
1011;DHT22;494;48.744;10.106;2023-02-21T11:57:33;34.60;1.00
1011;DHT22;494;48.744;10.106;2023-02-21T12:00:17;34.60;1.00
1011;DHT22;494;48.744;10.106;2023-02-21T12:03:06;34.70;1.00
1011;DHT22;494;48.744;10.106;2023-02-21T12:05:56;34.80;1.00
1011;DHT22;494;48.744;10.106;2023-02-21T12:08:44;35.00;1.00
1011;DHT22;494;48.744;10.106;2023-02-21T12:11:27;35.40;1.00
1011;DHT22;494;48.744;10.106;2023-02-21T12:14:26;35.00;1.00
1011;DHT22;494;48.744;10.106;2023-02-21T12:17:13;34.60;1.00
1011;DHT22;494;48.744;10.106;2023-02-21T12:20:21;34.50;1.00
1011;DHT22;494;48.744;10.106;2023-02-21T12:23:15;34.00;1.00
1011;DHT22;494;48.744;10.106;2023-02-21T12:29:11;33.90;1.00
1011;DHT22;494;48.744;10.106;2023-02-21T12:32:18;33.80;1.00
1011;DHT22;494;48.744;10.106;2023-02-21T12:35:09;34.10;1.00
1011;DHT22;494;48.744;10.106;2023-02-21T12:38:04;34.40;1.00
1011;DHT22;494;48.744;10.106;2023-02-21T12:40:44;34.70;1.00
1011;DHT22;494;48.744;10.106;2023-02-21T12:43:42;35.00;1.00
1011;DHT22;494;48.744;10.106;2023-02-21T12:46:22;35.10;1.00
1011;DHT22;494;48.744;10.106;2023-02-21T12:49:00;35.00;1.00
1011;DHT22;494;48.744;10.106;2023-02-21T12:51:36;34.90;1.00
1011;DHT22;494;48.744;10.106;2023-02-21T12:54:11;35.10;1.00
1011;DHT22;494;48.744;10.106;2023-02-21T12:56:47;35.10;1.00
1011;DHT22;494;48.744;10.106;2023-02-21T12:59:25;35.30;1.00
1011;DHT22;494;48.744;10.106;2023-02-21T13:02:02;35.90;1.00
1011;DHT22;494;48.744;10.106;2023-02-21T13:04:51;36.00;1.00
1011;DHT22;494;48.744;10.106;2023-02-21T13:07:24;36.00;1.00
1011;DHT22;494;48.744;10.106;2023-02-21T13:10:02;35.80;1.00
1011;DHT22;494;48.744;10.106;2023-02-21T13:12:38;35.60;1.00
1011;DHT22;494;48.744;10.106;2023-02-21T13:15:18;35.50;1.00
1011;DHT22;494;48.744;10.106;2023-02-21T13:17:54;35.60;1.00
1011;DHT22;494;48.744;10.106;2023-02-21T13:20:33;35.90;1.00
1011;DHT22;494;48.744;10.106;2023-02-21T13:23:22;36.20;1.00
1011;DHT22;494;48.744;10.106;2023-02-21T13:26:37;36.30;1.00
1011;DHT22;494;48.744;10.106;2023-02-21T13:29:17;36.10;1.00
1011;DHT22;494;48.744;10.106;2023-02-21T13:31:58;35.90;1.00
1011;DHT22;494;48.744;10.106;2023-02-21T13:34:29;35.80;1.00
1011;DHT22;494;48.744;10.106;2023-02-21T13:37:06;35.80;1.00
1011;DHT22;494;48.744;10.106;2023-02-21T13:39:44;35.80;1.00
1011;DHT22;494;48.744;10.106;2023-02-21T13:42:21;35.90;1.00
1011;DHT22;494;48.744;10.106;2023-02-21T13:45:03;36.10;1.00
1011;DHT22;494;48.744;10.106;2023-02-21T13:50:57;36.40;1.00
1011;DHT22;494;48.744;10.106;2023-02-21T13:53:29;36.70;1.00
1011;DHT22;494;48.744;10.106;2023-02-21T13:56:16;36.60;1.00
1011;DHT22;494;48.744;10.106;2023-02-21T13:58:47;36.80;1.00
1011;DHT22;494;48.744;10.106;2023-02-21T14:01:40;36.60;1.00
1011;DHT22;494;48.744;10.106;2023-02-21T14:07:54;36.50;1.00
1011;DHT22;494;48.744;10.106;2023-02-21T14:10:38;36.60;1.00
1011;DHT22;494;48.744;10.106;2023-02-21T14:13:20;36.50;1.00
1011;DHT22;494;48.744;10.106;2023-02-21T14:15:57;36.80;1.00
1011;DHT22;494;48.744;10.106;2023-02-21T14:18:44;36.70;1.00
1011;DHT22;494;48.744;10.106;2023-02-21T14:21:23;36.80;1.00
1011;DHT22;494;48.744;10.106;2023-02-21T14:23:58;37.00;1.00
1011;DHT22;494;48.744;10.106;2023-02-21T14:26:40;37.10;1.00
1011;DHT22;494;48.744;10.106;2023-02-21T14:29:14;36.70;1.00
1011;DHT22;494;48.744;10.106;2023-02-21T14:31:57;36.70;1.00
1011;DHT22;494;48.744;10.106;2023-02-21T14:34:52;36.90;1.00
1011;DHT22;494;48.744;10.106;2023-02-21T14:37:29;37.10;1.00
1011;DHT22;494;48.744;10.106;2023-02-21T14:40:08;37.00;1.00
1011;DHT22;494;48.744;10.106;2023-02-21T14:42:58;37.00;1.00
1011;DHT22;494;48.744;10.106;2023-02-21T14:45:44;36.80;1.00
1011;DHT22;494;48.744;10.106;2023-02-21T14:48:49;36.40;1.00
1011;DHT22;494;48.744;10.106;2023-02-21T14:51:46;36.00;1.00
1011;DHT22;494;48.744;10.106;2023-02-21T14:55:07;35.50;1.00
1011;DHT22;494;48.744;10.106;2023-02-21T15:01:15;34.90;1.00
1011;DHT22;494;48.744;10.106;2023-02-21T15:04:03;35.00;1.00
1011;DHT22;494;48.744;10.106;2023-02-21T15:06:42;35.00;1.00
1011;DHT22;494;48.744;10.106;2023-02-21T15:09:20;34.90;1.00
1011;DHT22;494;48.744;10.106;2023-02-21T15:11:50;34.60;1.00
1011;DHT22;494;48.744;10.106;2023-02-21T15:14:21;34.40;1.00
1011;DHT22;494;48.744;10.106;2023-02-21T15:16:54;34.40;1.00
1011;DHT22;494;48.744;10.106;2023-02-21T15:19:27;34.30;1.00
1011;DHT22;494;48.744;10.106;2023-02-21T15:22:19;33.90;1.00
1011;DHT22;494;48.744;10.106;2023-02-21T15:25:17;33.00;1.00
1011;DHT22;494;48.744;10.106;2023-02-21T15:28:04;31.40;1.00
1011;DHT22;494;48.744;10.106;2023-02-21T15:30:37;29.30;1.00
1011;DHT22;494;48.744;10.106;2023-02-21T15:33:14;27.60;1.00
1011;DHT22;494;48.744;10.106;2023-02-21T15:35:47;26.20;1.00
1011;DHT22;494;48.744;10.106;2023-02-21T15:38:22;25.20;2.00
1011;DHT22;494;48.744;10.106;2023-02-21T15:41:01;24.20;3.20
1011;DHT22;494;48.744;10.106;2023-02-21T15:43:42;23.30;4.10
1011;DHT22;494;48.744;10.106;2023-02-21T15:46:17;22.60;5.00
1011;DHT22;494;48.744;10.106;2023-02-21T15:48:49;22.00;5.70
1011;DHT22;494;48.744;10.106;2023-02-21T15:51:19;21.60;6.80
1011;DHT22;494;48.744;10.106;2023-02-21T15:54:21;21.20;7.70
1011;DHT22;494;48.744;10.106;2023-02-21T15:57:11;20.60;8.90
1011;DHT22;494;48.744;10.106;2023-02-21T15:59:56;20.00;9.80
1011;DHT22;494;48.744;10.106;2023-02-21T16:02:44;19.50;11.10
1011;DHT22;494;48.744;10.106;2023-02-21T16:05:24;19.00;11.80
1011;DHT22;494;48.744;10.106;2023-02-21T16:08:00;18.70;12.30
1011;DHT22;494;48.744;10.106;2023-02-21T16:10:31;18.30;13.10
1011;DHT22;494;48.744;10.106;2023-02-21T16:13:00;17.90;13.90
1011;DHT22;494;48.744;10.106;2023-02-21T16:15:32;17.50;14.70
1011;DHT22;494;48.744;10.106;2023-02-21T16:18:06;16.90;15.40
1011;DHT22;494;48.744;10.106;2023-02-21T16:20:37;16.90;15.80
1011;DHT22;494;48.744;10.106;2023-02-21T16:23:22;16.70;16.30
1011;DHT22;494;48.744;10.106;2023-02-21T16:25:57;16.40;16.70
1011;DHT22;494;48.744;10.106;2023-02-21T16:28:27;16.10;17.10
1011;DHT22;494;48.744;10.106;2023-02-21T16:30:59;16.00;17.40
1011;DHT22;494;48.744;10.106;2023-02-21T16:33:29;15.80;17.70
1011;DHT22;494;48.744;10.106;2023-02-21T16:36:00;15.70;18.20
1011;DHT22;494;48.744;10.106;2023-02-21T16:38:32;15.40;18.50
1011;DHT22;494;48.744;10.106;2023-02-21T16:41:01;15.30;18.80
1011;DHT22;494;48.744;10.106;2023-02-21T16:43:30;15.30;19.10
1011;DHT22;494;48.744;10.106;2023-02-21T16:46:02;15.20;19.00
1011;DHT22;494;48.744;10.106;2023-02-21T16:48:31;15.10;19.50
1011;DHT22;494;48.744;10.106;2023-02-21T16:51:01;15.00;19.70
1011;DHT22;494;48.744;10.106;2023-02-21T16:53:31;14.80;20.40
1011;DHT22;494;48.744;10.106;2023-02-21T16:56:00;14.50;21.10
1011;DHT22;494;48.744;10.106;2023-02-21T16:58:31;14.20;21.70
1011;DHT22;494;48.744;10.106;2023-02-21T17:01:06;14.00;22.00
1011;DHT22;494;48.744;10.106;2023-02-21T17:03:44;13.90;22.40
1011;DHT22;494;48.744;10.106;2023-02-21T17:06:16;13.70;23.20
1011;DHT22;494;48.744;10.106;2023-02-21T17:08:46;13.60;23.30
1011;DHT22;494;48.744;10.106;2023-02-21T17:11:15;13.50;23.60
1011;DHT22;494;48.744;10.106;2023-02-21T17:13:44;13.40;23.60
1011;DHT22;494;48.744;10.106;2023-02-21T17:16:14;13.40;23.70
1011;DHT22;494;48.744;10.106;2023-02-21T17:18:43;13.30;24.10
1011;DHT22;494;48.744;10.106;2023-02-21T17:21:11;13.20;24.30
1011;DHT22;494;48.744;10.106;2023-02-21T17:23:41;13.00;25.00
1011;DHT22;494;48.744;10.106;2023-02-21T17:26:09;12.90;25.20
1011;DHT22;494;48.744;10.106;2023-02-21T17:28:39;12.80;25.50
1011;DHT22;494;48.744;10.106;2023-02-21T17:31:07;12.70;25.80
1011;DHT22;494;48.744;10.106;2023-02-21T17:33:37;12.50;26.60